createdAt,value
2022-11-29T00:01:16.210Z,15.82
2022-11-29T00:03:43.542Z,14.80
2022-11-29T00:06:13.615Z,16.92
2022-11-29T00:08:41.450Z,15.90
2022-11-29T00:11:13.507Z,16.65
2022-11-29T00:13:40.756Z,17.10
2022-11-29T00:16:12.545Z,17.30
2022-11-29T00:18:39.812Z,17.95
2022-11-29T00:21:08.042Z,16.90
2022-11-29T00:23:35.902Z,16.52
2022-11-29T00:26:04.151Z,15.65
2022-11-29T00:28:31.391Z,16.50
2022-11-29T00:30:58.745Z,16.65
2022-11-29T00:33:26.047Z,17.08
2022-11-29T00:35:53.273Z,16.38
2022-11-29T00:38:20.492Z,16.77
2022-11-29T00:40:51.758Z,15.48
2022-11-29T00:43:19.141Z,16.55
2022-11-29T00:45:46.399Z,16.75
2022-11-29T00:48:13.714Z,16.50
2022-11-29T00:50:40.926Z,16.70
2022-11-29T00:53:08.303Z,16.38
2022-11-29T00:55:35.482Z,16.38
2022-11-29T00:58:02.794Z,16.55
2022-11-29T01:00:29.986Z,15.68
2022-11-29T01:02:57.252Z,17.40
2022-11-29T01:05:24.664Z,16.83
2022-11-29T01:07:51.915Z,16.55
2022-11-29T01:10:19.259Z,16.98
2022-11-29T01:12:46.439Z,17.95
2022-11-29T01:15:13.734Z,16.35
2022-11-29T01:17:41.070Z,16.27
2022-11-29T01:20:09.794Z,16.80
2022-11-29T01:22:37.043Z,16.25
2022-11-29T01:25:05.212Z,16.60
2022-11-29T01:27:32.920Z,16.55
2022-11-29T01:30:00.149Z,17.45
2022-11-29T01:32:27.440Z,18.20
2022-11-29T01:34:54.650Z,16.02
2022-11-29T01:37:21.822Z,17.40
2022-11-29T01:39:49.122Z,16.13
2022-11-29T01:42:16.375Z,16.70
2022-11-29T01:44:46.641Z,17.13
2022-11-29T01:47:14.099Z,18.13
2022-11-29T01:49:46.088Z,16.65
2022-11-29T01:52:24.777Z,16.60
2022-11-29T01:54:53.702Z,18.50
2022-11-29T01:57:21.144Z,17.05
2022-11-29T01:59:53.091Z,16.50
2022-11-29T02:02:27.868Z,16.05
2022-11-29T02:04:58.408Z,14.98
2022-11-29T02:07:25.903Z,16.42
2022-11-29T02:09:53.192Z,16.08
2022-11-29T02:12:30.136Z,15.77
2022-11-29T02:15:00.382Z,16.23
2022-11-29T02:17:36.378Z,16.42
2022-11-29T02:20:10.166Z,15.02
2022-11-29T02:22:53.357Z,15.30
2022-11-29T02:25:23.551Z,14.63
2022-11-29T02:28:09.449Z,14.85
2022-11-29T02:31:12.432Z,14.52
2022-11-29T02:33:45.549Z,14.90
2022-11-29T02:36:15.777Z,15.35
2022-11-29T02:38:54.502Z,15.50
2022-11-29T02:41:28.486Z,14.95
2022-11-29T02:44:14.783Z,13.95
2022-11-29T02:46:50.177Z,15.32
2022-11-29T02:49:36.261Z,14.00
2022-11-29T02:52:07.839Z,15.45
2022-11-29T02:54:38.248Z,15.38
2022-11-29T02:57:12.453Z,14.80
2022-11-29T02:59:42.238Z,13.88
2022-11-29T03:02:21.821Z,15.02
2022-11-29T03:05:08.028Z,14.02
2022-11-29T03:07:35.367Z,14.25
2022-11-29T03:10:06.106Z,14.02
2022-11-29T03:12:40.078Z,14.68
2022-11-29T03:15:13.202Z,14.35
2022-11-29T03:17:49.532Z,14.70
2022-11-29T03:20:29.082Z,13.90
2022-11-29T03:23:20.081Z,14.68
2022-11-29T03:25:56.654Z,13.68
2022-11-29T03:28:28.025Z,14.57
2022-11-29T03:31:18.331Z,14.55
2022-11-29T03:33:56.667Z,13.57
2022-11-29T03:36:36.227Z,13.75
2022-11-29T03:39:08.330Z,13.68
2022-11-29T03:41:44.628Z,12.13
2022-11-29T03:44:11.886Z,12.63
2022-11-29T03:46:44.856Z,12.73
2022-11-29T03:49:17.175Z,12.60
2022-11-29T03:51:56.684Z,11.88
2022-11-29T03:54:35.144Z,11.80
2022-11-29T03:57:02.488Z,12.30
2022-11-29T03:59:59.064Z,12.07
2022-11-29T04:02:37.314Z,12.52
2022-11-29T04:05:04.532Z,12.18
2022-11-29T04:07:35.237Z,12.10
2022-11-29T04:10:17.830Z,12.13
2022-11-29T04:13:03.793Z,12.48
2022-11-29T04:15:34.054Z,11.77
2022-11-29T04:18:07.441Z,12.43
2022-11-29T04:20:40.403Z,12.18
2022-11-29T04:23:09.330Z,11.70
2022-11-29T04:25:45.776Z,11.80
2022-11-29T04:28:13.053Z,11.43
2022-11-29T04:30:53.058Z,11.65
2022-11-29T04:33:40.594Z,12.00
2022-11-29T04:36:29.271Z,11.10
2022-11-29T04:38:56.488Z,10.90
2022-11-29T04:41:42.082Z,12.27
2022-11-29T04:44:21.598Z,12.32
2022-11-29T04:46:56.199Z,11.60
2022-11-29T04:49:23.434Z,11.63
2022-11-29T04:51:56.994Z,11.90
2022-11-29T04:54:31.644Z,11.77
2022-11-29T04:57:06.778Z,12.20
2022-11-29T04:59:44.736Z,11.57
2022-11-29T05:02:12.020Z,11.95
2022-11-29T05:04:54.509Z,11.23
2022-11-29T05:07:26.058Z,11.23
2022-11-29T05:10:02.517Z,11.48
2022-11-29T05:12:33.887Z,11.45
2022-11-29T05:15:10.255Z,11.00
2022-11-29T05:17:40.547Z,11.20
2022-11-29T05:20:14.374Z,9.88
2022-11-29T05:23:01.682Z,9.88
2022-11-29T05:25:35.414Z,10.52
2022-11-29T05:28:22.864Z,10.63
2022-11-29T05:30:59.161Z,9.77
2022-11-29T05:33:45.379Z,10.05
2022-11-29T05:36:22.288Z,9.93
2022-11-29T05:39:12.814Z,9.70
2022-11-29T05:41:43.032Z,9.73
2022-11-29T05:44:16.430Z,9.48
2022-11-29T05:46:53.928Z,9.27
2022-11-29T05:49:40.013Z,8.55
2022-11-29T05:52:30.177Z,8.95
2022-11-29T05:55:06.543Z,8.82
2022-11-29T05:57:52.670Z,8.55
2022-11-29T06:00:20.364Z,8.68
2022-11-29T06:02:59.957Z,8.25
2022-11-29T06:05:32.515Z,9.05
2022-11-29T06:08:16.824Z,9.65
2022-11-29T06:11:13.438Z,9.38
2022-11-29T06:13:59.398Z,8.35
2022-11-29T06:16:32.915Z,7.90
2022-11-29T06:19:12.615Z,8.40
2022-11-29T06:22:00.010Z,8.55
2022-11-29T06:24:30.403Z,7.88
2022-11-29T06:27:22.531Z,8.23
2022-11-29T06:29:57.416Z,8.10
2022-11-29T06:32:30.734Z,8.13
2022-11-29T06:35:03.280Z,8.10
2022-11-29T06:37:33.262Z,8.25
2022-11-29T06:40:00.747Z,7.80
2022-11-29T06:42:27.947Z,7.82
2022-11-29T06:44:55.352Z,8.88
2022-11-29T06:47:22.732Z,8.13
2022-11-29T06:49:51.974Z,7.93
2022-11-29T06:52:19.206Z,7.80
2022-11-29T06:54:46.786Z,7.85
2022-11-29T06:57:49.947Z,7.72
2022-11-29T07:00:20.267Z,7.65
2022-11-29T07:03:06.756Z,6.93
2022-11-29T07:05:35.512Z,7.78
2022-11-29T07:08:07.559Z,7.15
2022-11-29T07:10:37.044Z,6.47
2022-11-29T07:13:04.502Z,6.15
2022-11-29T07:15:32.173Z,6.60
2022-11-29T07:17:59.391Z,7.22
2022-11-29T07:20:38.671Z,6.53
2022-11-29T07:23:08.942Z,6.95
2022-11-29T07:25:41.967Z,7.00
2022-11-29T07:28:29.462Z,6.88
2022-11-29T07:31:04.613Z,6.10
2022-11-29T07:33:38.005Z,6.25
2022-11-29T07:36:17.311Z,6.30
2022-11-29T07:39:17.620Z,6.43
2022-11-29T07:41:54.757Z,6.18
2022-11-29T07:44:28.462Z,5.60
2022-11-29T07:46:55.702Z,6.22
2022-11-29T07:49:22.919Z,6.00
2022-11-29T07:51:50.282Z,5.72
2022-11-29T07:54:18.852Z,5.50
2022-11-29T07:56:46.384Z,5.47
2022-11-29T07:59:14.567Z,6.38
2022-11-29T08:01:42.301Z,5.57
2022-11-29T08:04:09.688Z,5.88
2022-11-29T08:06:36.933Z,5.70
2022-11-29T08:09:04.654Z,5.75
2022-11-29T08:11:31.974Z,4.97
2022-11-29T08:14:00.062Z,5.05
2022-11-29T08:16:27.295Z,5.25
2022-11-29T08:18:54.825Z,5.70
2022-11-29T08:21:22.448Z,5.30
2022-11-29T08:23:50.434Z,5.80
2022-11-29T08:26:18.375Z,5.93
2022-11-29T08:28:45.802Z,6.40
2022-11-29T08:31:13.976Z,5.72
2022-11-29T08:33:42.338Z,6.50
2022-11-29T08:36:11.249Z,5.38
2022-11-29T08:38:38.499Z,5.45
2022-11-29T08:41:06.920Z,6.45
2022-11-29T08:43:34.610Z,6.05
2022-11-29T08:46:01.922Z,5.53
2022-11-29T08:48:29.177Z,5.75
2022-11-29T08:50:57.110Z,5.32
2022-11-29T08:53:43.096Z,5.30
2022-11-29T08:56:53.515Z,6.28
2022-11-29T08:59:01.812Z,5.18
2022-11-29T09:01:29.588Z,4.97
2022-11-29T09:03:59.657Z,4.88
2022-11-29T09:06:27.865Z,5.30
2022-11-29T09:08:56.340Z,5.55
2022-11-29T09:11:24.335Z,5.03
2022-11-29T09:13:53.356Z,5.07
2022-11-29T09:16:23.839Z,4.93
2022-11-29T09:18:52.331Z,5.72
2022-11-29T09:21:19.958Z,4.60
2022-11-29T09:23:47.488Z,5.35
2022-11-29T09:26:19.144Z,4.97
2022-11-29T09:28:46.826Z,5.13
2022-11-29T09:31:15.124Z,5.07
2022-11-29T09:33:42.426Z,5.03
2022-11-29T09:36:11.109Z,4.88
2022-11-29T09:38:39.276Z,4.70
2022-11-29T09:41:24.644Z,5.32
2022-11-29T09:43:51.831Z,4.47
2022-11-29T09:46:25.301Z,4.43
2022-11-29T09:48:59.831Z,4.85
2022-11-29T09:51:31.923Z,5.10
2022-11-29T09:54:04.854Z,4.68
2022-11-29T09:56:37.856Z,4.80
2022-11-29T09:59:09.715Z,5.32
2022-11-29T10:01:42.117Z,4.70
2022-11-29T10:04:17.652Z,4.60
2022-11-29T10:06:49.052Z,4.88
2022-11-29T10:09:21.631Z,4.90
2022-11-29T10:11:57.756Z,5.15
2022-11-29T10:14:30.890Z,5.07
2022-11-29T10:17:27.979Z,5.22
2022-11-29T10:20:00.280Z,4.25
2022-11-29T10:22:43.226Z,4.55
2022-11-29T10:25:16.682Z,4.95
2022-11-29T10:27:43.935Z,4.93
2022-11-29T10:30:15.238Z,5.60
2022-11-29T10:32:43.256Z,4.65
2022-11-29T10:35:15.681Z,5.22
2022-11-29T10:37:56.347Z,4.80
2022-11-29T10:40:34.236Z,5.05
2022-11-29T10:43:02.038Z,4.70
2022-11-29T10:45:31.081Z,5.25
2022-11-29T10:48:07.001Z,5.65
2022-11-29T10:50:37.772Z,4.95
2022-11-29T10:53:11.417Z,5.00
2022-11-29T10:55:47.748Z,5.72
2022-11-29T10:58:14.957Z,5.85
2022-11-29T11:00:48.067Z,5.65
2022-11-29T11:03:38.727Z,5.88
2022-11-29T11:06:09.014Z,5.80
2022-11-29T11:08:36.776Z,5.68
2022-11-29T11:11:05.246Z,5.93
2022-11-29T11:13:33.744Z,5.88
2022-11-29T11:16:16.743Z,5.50
2022-11-29T11:18:44.552Z,6.05
2022-11-29T11:21:12.623Z,5.82
2022-11-29T11:24:00.128Z,5.72
2022-11-29T11:26:28.081Z,5.38
2022-11-29T11:29:00.195Z,5.88
2022-11-29T11:31:30.514Z,5.45
2022-11-29T11:33:57.864Z,5.70
2022-11-29T11:36:27.224Z,6.65
2022-11-29T11:41:21.671Z,5.93
2022-11-29T11:44:00.015Z,5.90
2022-11-29T11:46:47.793Z,6.25
2022-11-29T11:49:25.676Z,6.18
2022-11-29T11:51:53.041Z,6.57
2022-11-29T11:54:20.730Z,6.07
2022-11-29T11:56:47.960Z,5.97
2022-11-29T11:59:24.357Z,6.18
2022-11-29T12:01:53.444Z,6.47
2022-11-29T12:04:27.387Z,6.50
2022-11-29T12:06:58.924Z,5.82
2022-11-29T12:09:29.195Z,5.80
2022-11-29T12:12:02.363Z,6.15
2022-11-29T12:14:34.977Z,6.15
2022-11-29T12:17:06.394Z,6.15
2022-11-29T12:19:38.182Z,6.20
2022-11-29T12:22:09.324Z,6.80
2022-11-29T12:24:39.898Z,7.05
2022-11-29T12:27:10.560Z,6.30
2022-11-29T12:29:37.801Z,6.75
2022-11-29T12:32:14.147Z,6.88
2022-11-29T12:34:59.899Z,6.05
2022-11-29T12:37:27.095Z,6.72
2022-11-29T12:40:05.733Z,6.00
2022-11-29T12:42:39.487Z,6.68
2022-11-29T12:45:15.719Z,6.63
2022-11-29T12:47:51.467Z,6.25
2022-11-29T12:50:24.886Z,6.65
2022-11-29T12:53:07.140Z,6.65
2022-11-29T12:58:04.509Z,6.72
2022-11-29T13:00:36.316Z,7.00
2022-11-29T13:03:09.458Z,6.88
2022-11-29T13:05:50.564Z,7.60
2022-11-29T13:08:20.735Z,6.93
2022-11-29T13:10:53.723Z,7.20
2022-11-29T13:13:41.393Z,7.15
2022-11-29T13:16:08.697Z,6.10
2022-11-29T13:18:44.318Z,6.55
2022-11-29T13:21:13.905Z,6.90
2022-11-29T13:26:37.725Z,7.13
2022-11-29T13:29:05.369Z,7.10
2022-11-29T13:31:33.746Z,6.63
2022-11-29T13:34:39.650Z,7.10
2022-11-29T13:37:15.916Z,6.80
2022-11-29T13:39:58.047Z,6.55
2022-11-29T13:42:28.076Z,6.82
2022-11-29T13:45:15.189Z,6.45
2022-11-29T13:47:50.062Z,6.05
2022-11-29T13:50:37.312Z,7.10
2022-11-29T13:53:06.882Z,6.43
2022-11-29T13:55:34.313Z,6.65
2022-11-29T13:58:20.940Z,6.35
2022-11-29T14:00:48.195Z,6.97
2022-11-29T14:03:25.935Z,7.68
2022-11-29T14:05:59.417Z,6.88
2022-11-29T14:09:02.118Z,6.93
2022-11-29T14:11:24.882Z,7.40
2022-11-29T14:13:52.875Z,7.13
2022-11-29T14:16:40.318Z,7.40
2022-11-29T14:19:10.532Z,6.40
2022-11-29T14:22:13.348Z,7.15
2022-11-29T14:24:41.097Z,7.13
2022-11-29T14:27:12.601Z,6.72
2022-11-29T14:29:55.119Z,6.35
2022-11-29T14:32:35.161Z,6.85
2022-11-29T14:35:14.226Z,7.10
2022-11-29T14:37:44.954Z,6.65
2022-11-29T14:40:18.588Z,7.05
2022-11-29T14:42:49.046Z,6.68
2022-11-29T14:45:24.257Z,6.57
2022-11-29T14:47:51.543Z,6.75
2022-11-29T14:50:30.471Z,6.38
2022-11-29T14:52:57.945Z,6.32
2022-11-29T14:55:25.179Z,6.20
2022-11-29T14:58:05.727Z,6.90
2022-11-29T15:00:42.229Z,6.65
2022-11-29T15:03:28.450Z,6.70
2022-11-29T15:06:00.003Z,6.43
2022-11-29T15:08:27.186Z,6.78
2022-11-29T15:11:05.790Z,6.78
2022-11-29T15:13:35.144Z,6.70
2022-11-29T15:18:51.335Z,6.65
2022-11-29T15:21:39.726Z,6.57
2022-11-29T15:24:12.829Z,7.35
2022-11-29T15:26:40.165Z,7.10
2022-11-29T15:29:18.707Z,7.53
2022-11-29T15:31:50.012Z,7.22
2022-11-29T15:34:37.520Z,6.82
2022-11-29T15:37:05.117Z,6.80
2022-11-29T15:39:36.866Z,7.15
2022-11-29T15:42:11.736Z,6.88
2022-11-29T15:44:45.549Z,7.43
2022-11-29T15:47:17.502Z,7.30
2022-11-29T15:49:44.865Z,7.55
2022-11-29T15:52:20.043Z,7.38
2022-11-29T15:54:50.602Z,7.43
2022-11-29T15:57:25.839Z,7.10
2022-11-29T16:00:03.110Z,7.40
2022-11-29T16:02:33.746Z,7.20
2022-11-29T16:05:03.702Z,7.95
2022-11-29T16:07:32.685Z,7.80
2022-11-29T16:10:02.489Z,7.80
2022-11-29T16:12:29.674Z,7.75
2022-11-29T16:14:58.331Z,7.70
2022-11-29T16:17:30.541Z,8.20
2022-11-29T16:20:19.365Z,7.63
2022-11-29T16:25:15.036Z,8.38
2022-11-29T16:27:42.337Z,8.45
2022-11-29T16:30:20.771Z,9.07
2022-11-29T16:32:51.930Z,9.27
2022-11-29T16:35:21.692Z,8.30
2022-11-29T16:37:49.110Z,9.43
2022-11-29T16:40:26.787Z,9.15
2022-11-29T16:43:12.819Z,8.73
2022-11-29T16:45:43.927Z,9.07
2022-11-29T16:48:23.109Z,9.05
2022-11-29T16:51:13.820Z,8.73
2022-11-29T16:53:48.479Z,8.23
2022-11-29T16:56:17.358Z,8.95
2022-11-29T16:59:25.612Z,7.82
2022-11-29T17:01:32.890Z,8.93
2022-11-29T17:04:01.016Z,8.63
2022-11-29T17:06:28.795Z,8.60
2022-11-29T17:08:56.996Z,8.95
2022-11-29T17:11:24.210Z,8.60
2022-11-29T17:13:51.656Z,8.75
2022-11-29T17:16:20.329Z,8.93
2022-11-29T17:18:48.064Z,8.20
2022-11-29T17:21:18.553Z,8.73
2022-11-29T17:23:46.019Z,8.63
2022-11-29T17:26:15.339Z,8.30
2022-11-29T17:31:19.956Z,8.40
2022-11-29T17:33:47.350Z,8.10
2022-11-29T17:36:16.581Z,8.40
2022-11-29T17:38:44.611Z,8.35
2022-11-29T17:41:12.917Z,8.38
2022-11-29T17:43:40.588Z,8.25
2022-11-29T17:46:08.652Z,7.68
2022-11-29T17:48:36.033Z,8.13
2022-11-29T17:51:07.007Z,8.35
2022-11-29T17:53:40.733Z,7.63
2022-11-29T17:56:09.173Z,7.93
2022-11-29T17:58:37.158Z,7.78
2022-11-29T18:01:11.708Z,7.75
2022-11-29T18:03:40.301Z,7.80
2022-11-29T18:06:17.752Z,8.27
2022-11-29T18:08:47.766Z,8.05
2022-11-29T18:11:14.992Z,7.57
2022-11-29T18:13:42.317Z,7.40
2022-11-29T18:16:09.490Z,7.95
2022-11-29T18:18:37.168Z,7.18
2022-11-29T18:21:05.380Z,8.02
2022-11-29T18:23:33.883Z,7.38
2022-11-29T18:26:02.331Z,7.25
2022-11-29T18:28:30.122Z,7.55
2022-11-29T18:30:57.548Z,7.68
2022-11-29T18:33:25.055Z,8.10
2022-11-29T18:35:52.323Z,7.88
2022-11-29T18:38:19.552Z,7.38
2022-11-29T18:40:46.900Z,7.25
2022-11-29T18:43:16.394Z,7.07
2022-11-29T18:45:43.714Z,7.60
2022-11-29T18:48:10.987Z,7.15
2022-11-29T18:50:38.260Z,7.07
2022-11-29T18:53:05.448Z,6.95
2022-11-29T18:55:33.188Z,7.18
2022-11-29T18:58:00.442Z,6.75
2022-11-29T19:00:27.628Z,6.95
2022-11-29T19:02:54.886Z,7.35
2022-11-29T19:05:22.125Z,6.70
2022-11-29T19:07:49.440Z,6.95
2022-11-29T19:10:16.749Z,6.65
2022-11-29T19:12:43.942Z,6.82
2022-11-29T19:15:11.323Z,6.43
2022-11-29T19:17:42.947Z,6.25
2022-11-29T19:20:11.154Z,6.75
2022-11-29T19:22:38.468Z,6.45
2022-11-29T19:25:05.871Z,6.85
2022-11-29T19:27:33.194Z,6.80
2022-11-29T19:30:00.408Z,5.95
2022-11-29T19:32:27.629Z,6.18
2022-11-29T19:34:54.862Z,6.15
2022-11-29T19:37:22.234Z,6.68
2022-11-29T19:39:49.496Z,6.15
2022-11-29T19:42:16.736Z,6.60
2022-11-29T19:45:15.449Z,6.78
2022-11-29T19:47:31.099Z,6.47
2022-11-29T19:50:02.362Z,6.50
2022-11-29T19:52:30.091Z,6.32
2022-11-29T19:54:58.128Z,6.65
2022-11-29T19:57:25.354Z,5.85
2022-11-29T19:59:52.575Z,6.50
2022-11-29T20:02:19.835Z,5.93
2022-11-29T20:04:49.620Z,6.05
2022-11-29T20:07:16.931Z,5.63
2022-11-29T20:09:44.456Z,5.68
2022-11-29T20:12:11.984Z,5.90
2022-11-29T20:14:39.273Z,5.65
2022-11-29T20:17:06.604Z,5.80
2022-11-29T20:19:33.812Z,5.40
2022-11-29T20:22:01.061Z,5.75
2022-11-29T20:24:29.748Z,5.65
2022-11-29T20:26:59.448Z,5.53
2022-11-29T20:29:30.391Z,5.22
2022-11-29T20:31:57.705Z,4.88
2022-11-29T20:34:25.268Z,5.30
2022-11-29T20:36:55.911Z,5.38
2022-11-29T20:39:26.262Z,5.20
2022-11-29T20:41:53.444Z,5.35
2022-11-29T20:44:21.898Z,4.93
2022-11-29T20:46:49.298Z,5.43
2022-11-29T20:49:17.933Z,5.00
2022-11-29T20:51:50.906Z,5.63
2022-11-29T20:54:18.877Z,4.90
2022-11-29T20:56:46.118Z,5.10
2022-11-29T20:59:13.463Z,5.63
2022-11-29T21:01:40.687Z,5.68
2022-11-29T21:04:07.932Z,5.30
2022-11-29T21:06:37.450Z,5.65
2022-11-29T21:09:05.124Z,5.45
2022-11-29T21:11:32.807Z,5.28
2022-11-29T21:14:03.797Z,5.80
2022-11-29T21:16:31.973Z,5.32
2022-11-29T21:19:00.790Z,5.88
2022-11-29T21:21:49.869Z,5.40
2022-11-29T21:24:32.576Z,4.82
2022-11-29T21:26:59.950Z,5.05
2022-11-29T21:29:27.293Z,4.93
2022-11-29T21:31:55.191Z,5.40
2022-11-29T21:34:23.043Z,4.78
2022-11-29T21:36:54.208Z,5.28
2022-11-29T21:39:23.171Z,5.38
2022-11-29T21:41:50.338Z,5.10
2022-11-29T21:44:17.511Z,5.22
2022-11-29T21:46:44.771Z,5.28
2022-11-29T21:49:11.994Z,5.20
2022-11-29T21:51:39.236Z,5.13
2022-11-29T21:54:06.488Z,5.10
2022-11-29T21:56:33.714Z,5.25
2022-11-29T21:59:00.908Z,5.15
2022-11-29T22:01:29.223Z,5.25
2022-11-29T22:03:56.473Z,5.03
2022-11-29T22:06:24.400Z,5.82
2022-11-29T22:08:51.667Z,4.95
2022-11-29T22:11:30.795Z,5.05
2022-11-29T22:14:14.552Z,5.68
2022-11-29T22:16:42.313Z,5.63
2022-11-29T22:19:12.224Z,5.50
2022-11-29T22:21:40.609Z,6.00
2022-11-29T22:24:09.064Z,6.78
2022-11-29T22:26:36.399Z,6.88
2022-11-29T22:29:03.914Z,6.15
2022-11-29T22:31:31.208Z,6.10
2022-11-29T22:33:58.601Z,6.43
2022-11-29T22:36:26.246Z,6.43
2022-11-29T22:38:53.610Z,6.28
2022-11-29T22:41:20.894Z,6.60
2022-11-29T22:43:48.139Z,6.45
2022-11-29T22:46:25.702Z,6.28
2022-11-29T22:48:55.410Z,6.32
2022-11-29T22:51:27.251Z,6.53
2022-11-29T22:53:55.518Z,6.78
2022-11-29T22:56:23.709Z,6.80
2022-11-29T22:58:51.438Z,7.25
2022-11-29T23:01:20.306Z,7.80
2022-11-29T23:03:48.560Z,7.15
2022-11-29T23:06:17.269Z,7.03
2022-11-29T23:08:45.319Z,7.65
2022-11-29T23:11:14.054Z,7.78
2022-11-29T23:13:41.948Z,8.70
2022-11-29T23:16:10.659Z,8.88
2022-11-29T23:18:39.199Z,8.13
2022-11-29T23:21:08.108Z,8.55
2022-11-29T23:23:35.682Z,9.30
2022-11-29T23:26:03.391Z,9.43
2022-11-29T23:28:31.276Z,9.20
2022-11-29T23:30:59.105Z,9.70
2022-11-29T23:33:26.862Z,8.95
2022-11-29T23:36:00.602Z,9.15
2022-11-29T23:38:27.803Z,9.10
2022-11-29T23:40:55.180Z,9.40
2022-11-29T23:43:22.603Z,9.77
2022-11-29T23:45:49.982Z,9.48
2022-11-29T23:48:17.383Z,9.82
2022-11-29T23:50:44.649Z,10.32
2022-11-29T23:53:15.628Z,9.95
2022-11-29T23:55:42.818Z,10.48
2022-11-29T23:58:10.847Z,10.10
